Time;durP1;ratioP1;P1;durP2;ratioP2;P2;SDS_P1;SDS_P2;PMS_P1;PMS_P2;Temp;Humidity;BMP_temperature;BMP_pressure;BME280_temperature;BME280_humidity;BME280_pressure;Samples;Min_cycle;Max_cycle;Signal;HPM_P1;HPM_P2
2021/05/08 00:01:37;;;;;;;10.87;7.27;;;;;;;;;;5030600;28;20212;-68
2021/05/08 00:04:04;;;;;;;10.73;8.07;;;;;;;;;;5042621;28;20202;-68
2021/05/08 00:06:29;;;;;;;12.73;7.83;;;;;;;;;;5030507;28;20185;-68
2021/05/08 00:08:56;;;;;;;14.20;8.83;;;;;;;;;;5049118;28;20732;-68
2021/05/08 00:11:21;;;;;;;14.03;8.60;;;;;;;;;;5026991;28;20272;-68
2021/05/08 00:13:46;;;;;;;12.40;8.50;;;;;;;;;;5040592;28;20311;-68
2021/05/08 00:16:12;;;;;;;12.33;8.33;;;;;;;;;;5032439;28;20181;-68
2021/05/08 00:18:37;;;;;;;12.17;8.20;;;;;;;;;;5032397;28;20184;-68
2021/05/08 00:21:03;;;;;;;12.23;8.33;;;;;;;;;;5036623;28;20790;-68
2021/05/08 00:23:28;;;;;;;11.87;8.33;;;;;;;;;;5042493;28;20209;-68
2021/05/08 00:25:54;;;;;;;15.53;8.33;;;;;;;;;;5042920;28;20253;-68
2021/05/08 00:28:20;;;;;;;13.43;8.93;;;;;;;;;;5036193;28;20264;-68
2021/05/08 00:30:45;;;;;;;12.90;9.10;;;;;;;;;;5036886;28;20205;-68
2021/05/08 00:33:11;;;;;;;15.77;9.63;;;;;;;;;;5043788;28;20181;-68
2021/05/08 00:35:36;;;;;;;15.73;9.70;;;;;;;;;;5042532;28;20532;-68
2021/05/08 00:38:02;;;;;;;13.53;9.50;;;;;;;;;;5035654;28;20664;-68
2021/05/08 00:40:27;;;;;;;14.90;9.60;;;;;;;;;;5038922;28;20231;-67
2021/05/08 00:42:52;;;;;;;16.47;9.73;;;;;;;;;;5035135;28;20653;-68
2021/05/08 00:45:18;;;;;;;14.27;10.10;;;;;;;;;;5036193;28;20589;-67
2021/05/08 00:47:47;;;;;;;14.07;9.27;;;;;;;;;;5027577;28;20474;-68
2021/05/08 00:50:15;;;;;;;15.60;8.93;;;;;;;;;;5039392;28;20213;-67
2021/05/08 00:52:40;;;;;;;12.50;9.00;;;;;;;;;;5025661;28;20566;-68
2021/05/08 00:55:07;;;;;;;14.17;9.07;;;;;;;;;;5042141;28;20182;-67
2021/05/08 00:57:33;;;;;;;13.07;8.50;;;;;;;;;;5038724;28;20178;-68
2021/05/08 00:59:58;;;;;;;13.53;8.43;;;;;;;;;;5027573;28;20731;-68
2021/05/08 01:02:24;;;;;;;14.07;7.87;;;;;;;;;;5039498;28;20197;-68
2021/05/08 01:04:50;;;;;;;11.60;7.43;;;;;;;;;;5031898;28;20231;-68
2021/05/08 01:07:15;;;;;;;12.47;7.60;;;;;;;;;;5034436;28;20615;-68
2021/05/08 01:09:41;;;;;;;10.87;7.83;;;;;;;;;;5032312;28;20661;-68
2021/05/08 01:12:06;;;;;;;14.57;8.00;;;;;;;;;;5033355;28;20184;-68
2021/05/08 01:14:32;;;;;;;11.60;8.40;;;;;;;;;;5030775;28;20216;-68
2021/05/08 01:16:57;;;;;;;14.43;7.77;;;;;;;;;;5039268;28;20586;-68
2021/05/08 01:19:26;;;;;;;13.13;7.77;;;;;;;;;;5039101;28;20212;-68
2021/05/08 01:21:51;;;;;;;12.47;8.23;;;;;;;;;;5038760;28;20617;-68
2021/05/08 01:24:16;;;;;;;12.87;7.93;;;;;;;;;;5032979;28;20225;-68
2021/05/08 01:26:42;;;;;;;12.80;8.70;;;;;;;;;;5044962;28;20181;-68
2021/05/08 01:29:08;;;;;;;10.77;7.47;;;;;;;;;;5040061;28;20185;-68
2021/05/08 01:31:33;;;;;;;13.30;7.93;;;;;;;;;;5026331;28;20197;-68
2021/05/08 01:34:00;;;;;;;12.37;8.43;;;;;;;;;;5040200;28;20267;-68
2021/05/08 01:36:26;;;;;;;11.27;7.97;;;;;;;;;;5030380;28;20634;-68
2021/05/08 01:38:52;;;;;;;12.47;8.33;;;;;;;;;;5043691;28;20676;-68
2021/05/08 01:41:18;;;;;;;12.77;8.40;;;;;;;;;;5031676;28;20225;-68
2021/05/08 01:43:43;;;;;;;9.70;6.33;;;;;;;;;;5044048;28;20677;-68
2021/05/08 01:46:08;;;;;;;11.80;7.47;;;;;;;;;;5034168;28;20233;-68
2021/05/08 01:48:35;;;;;;;12.67;7.70;;;;;;;;;;5048387;28;20208;-68
2021/05/08 01:51:00;;;;;;;11.27;7.07;;;;;;;;;;5035595;28;20177;-68
2021/05/08 01:53:25;;;;;;;13.13;8.27;;;;;;;;;;5044443;28;20595;-69
2021/05/08 01:55:52;;;;;;;17.13;7.70;;;;;;;;;;5030557;28;20642;-68
2021/05/08 01:58:17;;;;;;;11.60;7.20;;;;;;;;;;5049429;28;20301;-68
2021/05/08 02:00:45;;;;;;;11.20;7.87;;;;;;;;;;5038087;28;20176;-68
2021/05/08 02:03:12;;;;;;;14.50;8.30;;;;;;;;;;5039953;28;20210;-68
2021/05/08 02:05:39;;;;;;;12.23;7.70;;;;;;;;;;5038944;28;20201;-68
2021/05/08 02:08:06;;;;;;;13.13;8.10;;;;;;;;;;5032869;28;20182;-68
2021/05/08 02:10:34;;;;;;;11.20;7.63;;;;;;;;;;5040465;28;20202;-68
2021/05/08 02:13:01;;;;;;;12.70;7.67;;;;;;;;;;5033796;28;20545;-68
2021/05/08 02:15:26;;;;;;;13.10;8.13;;;;;;;;;;5041848;28;20213;-68
2021/05/08 02:17:52;;;;;;;12.47;7.93;;;;;;;;;;5041313;28;20221;-68
2021/05/08 02:20:22;;;;;;;14.30;8.27;;;;;;;;;;5039221;28;20186;-68
2021/05/08 02:22:47;;;;;;;12.70;8.50;;;;;;;;;;5039470;28;20190;-68
2021/05/08 02:25:13;;;;;;;13.60;7.83;;;;;;;;;;5045003;28;20279;-68
2021/05/08 02:27:41;;;;;;;12.83;8.20;;;;;;;;;;5037577;28;20856;-68
2021/05/08 02:30:08;;;;;;;12.83;8.70;;;;;;;;;;5040819;28;20235;-68
2021/05/08 02:32:34;;;;;;;13.77;8.37;;;;;;;;;;5027290;28;20560;-68
2021/05/08 02:35:00;;;;;;;14.50;8.50;;;;;;;;;;5043954;28;20664;-68
2021/05/08 02:37:25;;;;;;;15.53;8.60;;;;;;;;;;5045365;28;20636;-68
2021/05/08 02:39:50;;;;;;;15.70;9.30;;;;;;;;;;5035806;28;20200;-68
2021/05/08 02:42:16;;;;;;;14.07;9.37;;;;;;;;;;5043024;28;20252;-68
2021/05/08 02:44:41;;;;;;;13.33;9.03;;;;;;;;;;5035383;28;20221;-68
2021/05/08 02:47:17;;;;;;;14.07;8.93;;;;;;;;;;5040797;28;20208;-68
2021/05/08 02:49:50;;;;;;;18.83;9.57;;;;;;;;;;5036903;28;20663;-68
2021/05/08 02:52:16;;;;;;;14.23;8.60;;;;;;;;;;5042025;28;20192;-68
2021/05/08 02:54:42;;;;;;;14.57;9.37;;;;;;;;;;5034469;28;20716;-68
2021/05/08 02:57:07;;;;;;;17.00;9.23;;;;;;;;;;5039644;28;20181;-68
2021/05/08 02:59:33;;;;;;;13.57;8.80;;;;;;;;;;5035997;28;20182;-68
2021/05/08 03:02:00;;;;;;;14.23;9.17;;;;;;;;;;5039541;28;22171;-68
2021/05/08 03:04:25;;;;;;;15.77;9.73;;;;;;;;;;5034039;28;20718;-68
2021/05/08 03:06:50;;;;;;;16.37;10.10;;;;;;;;;;5041094;28;20182;-68
2021/05/08 03:09:16;;;;;;;14.57;8.87;;;;;;;;;;5032963;28;20260;-68
2021/05/08 03:11:41;;;;;;;15.03;9.80;;;;;;;;;;5037961;28;20189;-68
2021/05/08 03:14:08;;;;;;;14.03;9.67;;;;;;;;;;5042179;28;20195;-68
2021/05/08 03:16:34;;;;;;;17.07;10.30;;;;;;;;;;5028942;28;20276;-68
2021/05/08 03:18:59;;;;;;;16.60;8.97;;;;;;;;;;5040659;28;20268;-69
2021/05/08 03:21:24;;;;;;;15.30;10.00;;;;;;;;;;5035680;28;20186;-68
2021/05/08 03:23:50;;;;;;;18.20;10.37;;;;;;;;;;5041447;28;20232;-68
2021/05/08 03:26:15;;;;;;;17.73;11.00;;;;;;;;;;5035317;28;20185;-67
2021/05/08 03:28:40;;;;;;;18.27;11.30;;;;;;;;;;5046053;28;20188;-67
2021/05/08 03:31:05;;;;;;;16.70;11.33;;;;;;;;;;5038567;28;20188;-67
2021/05/08 03:33:31;;;;;;;18.93;11.40;;;;;;;;;;5038456;28;20193;-67
2021/05/08 03:35:56;;;;;;;21.30;11.63;;;;;;;;;;5027179;28;21960;-67
2021/05/08 03:38:21;;;;;;;19.40;11.30;;;;;;;;;;5039216;28;20203;-67
2021/05/08 03:40:47;;;;;;;22.77;12.47;;;;;;;;;;5042605;28;20237;-68
2021/05/08 03:43:12;;;;;;;21.30;11.67;;;;;;;;;;5039159;28;20279;-67
2021/05/08 03:45:37;;;;;;;18.00;11.13;;;;;;;;;;5033974;28;20569;-67
2021/05/08 03:48:03;;;;;;;17.80;11.03;;;;;;;;;;5031119;28;20274;-67
2021/05/08 03:50:29;;;;;;;16.83;11.27;;;;;;;;;;5042959;28;20197;-67
2021/05/08 03:52:54;;;;;;;17.13;12.03;;;;;;;;;;5036753;28;20655;-68
2021/05/08 03:55:20;;;;;;;16.77;11.83;;;;;;;;;;5041000;28;20645;-68
2021/05/08 03:57:45;;;;;;;19.80;12.30;;;;;;;;;;5032450;28;20190;-67
2021/05/08 04:00:11;;;;;;;22.00;12.47;;;;;;;;;;5045337;28;20539;-67
2021/05/08 04:02:36;;;;;;;21.30;11.37;;;;;;;;;;5035720;28;20791;-67
2021/05/08 04:05:02;;;;;;;18.37;11.97;;;;;;;;;;5034814;28;20252;-67
2021/05/08 04:07:27;;;;;;;22.80;13.80;;;;;;;;;;5028656;28;20200;-67
2021/05/08 04:09:52;;;;;;;20.43;12.97;;;;;;;;;;5039513;28;20191;-68
2021/05/08 04:12:18;;;;;;;22.53;15.20;;;;;;;;;;5041236;28;20181;-67
2021/05/08 04:14:43;;;;;;;22.80;14.30;;;;;;;;;;5026507;28;20210;-67
2021/05/08 04:17:09;;;;;;;21.40;14.90;;;;;;;;;;5044086;28;20196;-67
2021/05/08 04:19:34;;;;;;;23.10;14.90;;;;;;;;;;5032284;28;20229;-66
2021/05/08 04:21:59;;;;;;;23.20;15.40;;;;;;;;;;5042849;28;20196;-68
2021/05/08 04:24:25;;;;;;;22.63;14.67;;;;;;;;;;5035742;28;20196;-68
2021/05/08 04:26:50;;;;;;;24.53;14.73;;;;;;;;;;5037138;28;20255;-69
2021/05/08 04:29:15;;;;;;;24.50;16.57;;;;;;;;;;5034579;28;20197;-68
2021/05/08 04:31:41;;;;;;;25.37;16.03;;;;;;;;;;5041720;28;20283;-68
2021/05/08 04:34:06;;;;;;;27.53;17.77;;;;;;;;;;5032215;28;20209;-68
2021/05/08 04:36:31;;;;;;;24.60;16.77;;;;;;;;;;5040379;28;20190;-68
2021/05/08 04:38:57;;;;;;;29.40;18.33;;;;;;;;;;5035077;28;20178;-68
2021/05/08 04:41:22;;;;;;;27.17;18.17;;;;;;;;;;5039096;28;20710;-67
2021/05/08 04:43:47;;;;;;;27.67;17.67;;;;;;;;;;5042235;28;20182;-68
2021/05/08 04:46:12;;;;;;;27.77;18.33;;;;;;;;;;5042130;28;20182;-68
2021/05/08 04:48:38;;;;;;;25.27;17.40;;;;;;;;;;5042818;28;20176;-68
2021/05/08 04:51:04;;;;;;;26.07;17.10;;;;;;;;;;5030684;28;20198;-67
2021/05/08 04:53:30;;;;;;;26.33;17.87;;;;;;;;;;5044159;28;20212;-68
2021/05/08 04:55:55;;;;;;;24.23;17.07;;;;;;;;;;5028929;28;20533;-68
2021/05/08 04:58:21;;;;;;;23.83;17.13;;;;;;;;;;5039453;28;20648;-68
2021/05/08 05:00:46;;;;;;;26.83;16.70;;;;;;;;;;5037542;28;20280;-67
2021/05/08 05:03:11;;;;;;;25.40;16.73;;;;;;;;;;5041049;28;20221;-68
2021/05/08 05:05:37;;;;;;;26.23;16.73;;;;;;;;;;5036243;28;20181;-67
2021/05/08 05:08:02;;;;;;;22.60;17.23;;;;;;;;;;5043030;28;20186;-68
2021/05/08 05:10:28;;;;;;;24.33;16.37;;;;;;;;;;5028288;28;20645;-68
2021/05/08 05:12:53;;;;;;;24.83;17.07;;;;;;;;;;5040004;28;20205;-68
2021/05/08 05:15:19;;;;;;;28.17;17.13;;;;;;;;;;5046525;28;20259;-68
2021/05/08 05:17:46;;;;;;;22.73;16.13;;;;;;;;;;5033221;28;20720;-67
2021/05/08 05:20:12;;;;;;;25.03;17.10;;;;;;;;;;5043025;28;20239;-68
2021/05/08 05:22:38;;;;;;;22.00;15.47;;;;;;;;;;5033168;28;20550;-68
2021/05/08 05:25:05;;;;;;;22.47;15.83;;;;;;;;;;5045305;28;20275;-68
2021/05/08 05:27:31;;;;;;;19.50;14.80;;;;;;;;;;5032640;28;20189;-68
2021/05/08 05:29:56;;;;;;;24.27;15.13;;;;;;;;;;5041101;28;20232;-68
2021/05/08 05:32:22;;;;;;;21.93;14.67;;;;;;;;;;5033992;28;20649;-68
2021/05/08 05:34:48;;;;;;;19.37;14.47;;;;;;;;;;5035306;28;20201;-67
2021/05/08 05:37:13;;;;;;;21.37;14.63;;;;;;;;;;5033080;28;20180;-67
2021/05/08 05:39:38;;;;;;;20.30;13.93;;;;;;;;;;5039742;28;20182;-67
2021/05/08 05:42:04;;;;;;;21.67;14.30;;;;;;;;;;5044091;28;20229;-67
2021/05/08 05:44:29;;;;;;;23.70;13.83;;;;;;;;;;5038499;28;20189;-68
2021/05/08 05:46:55;;;;;;;20.17;13.73;;;;;;;;;;5043266;28;20263;-68
2021/05/08 05:49:20;;;;;;;19.57;14.47;;;;;;;;;;5033082;28;20501;-68
2021/05/08 05:51:46;;;;;;;24.60;14.20;;;;;;;;;;5042847;28;20177;-68
2021/05/08 05:54:11;;;;;;;19.60;14.37;;;;;;;;;;5030465;28;20699;-68
2021/05/08 05:56:36;;;;;;;18.53;13.20;;;;;;;;;;5040786;28;20690;-67
2021/05/08 05:59:02;;;;;;;17.70;13.43;;;;;;;;;;5031736;28;20194;-68
2021/05/08 06:01:27;;;;;;;21.27;14.00;;;;;;;;;;5046572;28;20258;-68
2021/05/08 06:03:53;;;;;;;19.23;13.67;;;;;;;;;;5034898;28;20186;-67
2021/05/08 06:06:18;;;;;;;19.63;13.20;;;;;;;;;;5045562;28;20194;-68
2021/05/08 06:08:43;;;;;;;18.10;13.37;;;;;;;;;;5031496;28;20637;-66
2021/05/08 06:11:09;;;;;;;19.70;13.97;;;;;;;;;;5044015;28;20189;-67
2021/05/08 06:13:35;;;;;;;18.93;13.53;;;;;;;;;;5043381;28;20202;-68
2021/05/08 06:16:02;;;;;;;21.43;12.87;;;;;;;;;;5038580;28;20576;-67
2021/05/08 06:18:27;;;;;;;15.60;12.50;;;;;;;;;;5043607;28;20211;-68
2021/05/08 06:20:54;;;;;;;18.98;13.60;;;;;;;;;;5030585;28;20273;-67
2021/05/08 06:23:20;;;;;;;18.85;13.52;;;;;;;;;;5043595;28;20205;-67
2021/05/08 06:25:45;;;;;;;20.83;13.35;;;;;;;;;;5043661;28;20209;-67
2021/05/08 06:28:11;;;;;;;21.33;12.93;;;;;;;;;;5040274;28;20624;-67
2021/05/08 06:30:37;;;;;;;21.55;12.30;;;;;;;;;;5039030;28;20272;-67
2021/05/08 06:33:02;;;;;;;17.27;12.52;;;;;;;;;;5040781;28;20205;-67
2021/05/08 06:35:27;;;;;;;17.73;11.23;;;;;;;;;;5042132;28;20216;-68
2021/05/08 06:37:53;;;;;;;15.35;10.82;;;;;;;;;;5045631;28;20178;-68
2021/05/08 06:40:18;;;;;;;17.92;11.13;;;;;;;;;;5034533;28;20259;-68
2021/05/08 06:42:43;;;;;;;16.92;11.18;;;;;;;;;;5041042;28;20235;-67
2021/05/08 06:45:10;;;;;;;18.80;10.98;;;;;;;;;;5042229;28;20190;-68
2021/05/08 06:47:35;;;;;;;19.08;11.45;;;;;;;;;;5030613;28;20567;-68
2021/05/08 06:50:01;;;;;;;17.77;11.38;;;;;;;;;;5039683;28;20197;-68
2021/05/08 06:52:26;;;;;;;17.50;11.32;;;;;;;;;;5036256;28;20204;-69
2021/05/08 06:54:52;;;;;;;18.30;11.13;;;;;;;;;;5045382;28;20206;-68
2021/05/08 06:57:17;;;;;;;17.33;11.13;;;;;;;;;;5031806;28;20540;-68
2021/05/08 06:59:42;;;;;;;13.35;9.80;;;;;;;;;;5036972;28;20272;-68
2021/05/08 07:02:08;;;;;;;15.75;10.55;;;;;;;;;;5035330;28;20216;-67
2021/05/08 07:04:34;;;;;;;15.82;10.82;;;;;;;;;;5043777;28;20165;-68
2021/05/08 07:06:59;;;;;;;15.68;10.93;;;;;;;;;;5033057;28;20205;-68
2021/05/08 07:09:24;;;;;;;17.77;10.43;;;;;;;;;;5046044;28;20703;-68
2021/05/08 07:11:50;;;;;;;17.98;10.35;;;;;;;;;;5034882;28;20204;-68
2021/05/08 07:14:16;;;;;;;16.75;10.23;;;;;;;;;;5042916;28;20209;-68
2021/05/08 07:16:41;;;;;;;17.20;11.05;;;;;;;;;;5044125;28;20200;-68
2021/05/08 07:19:07;;;;;;;15.38;10.80;;;;;;;;;;5034071;28;20235;-68
2021/05/08 07:21:32;;;;;;;19.35;11.05;;;;;;;;;;5043561;28;20190;-67
2021/05/08 07:23:57;;;;;;;12.73;9.52;;;;;;;;;;5033746;28;20188;-67
2021/05/08 07:26:23;;;;;;;14.93;9.43;;;;;;;;;;5046530;28;20291;-68
2021/05/08 07:28:48;;;;;;;16.13;10.30;;;;;;;;;;5037583;28;20241;-68
2021/05/08 07:31:13;;;;;;;14.02;9.27;;;;;;;;;;5041830;28;20880;-68
2021/05/08 07:33:39;;;;;;;15.88;9.25;;;;;;;;;;5031688;28;20236;-68
2021/05/08 07:36:05;;;;;;;16.05;9.88;;;;;;;;;;5043972;28;20189;-67
2021/05/08 07:38:30;;;;;;;14.70;10.25;;;;;;;;;;5029924;28;20674;-68
2021/05/08 07:40:55;;;;;;;14.00;9.98;;;;;;;;;;5045254;28;20571;-68
2021/05/08 07:43:21;;;;;;;14.02;9.90;;;;;;;;;;5031762;28;20201;-68
2021/05/08 07:45:50;;;;;;;12.82;9.32;;;;;;;;;;5041401;28;20282;-68
2021/05/08 07:48:16;;;;;;;16.40;9.63;;;;;;;;;;5042082;28;20177;-68
2021/05/08 07:50:41;;;;;;;12.38;8.68;;;;;;;;;;5040668;28;20181;-68
2021/05/08 07:53:07;;;;;;;13.35;9.18;;;;;;;;;;5038286;28;20521;-68
2021/05/08 07:55:33;;;;;;;15.60;9.40;;;;;;;;;;5038824;28;20208;-69
2021/05/08 07:57:59;;;;;;;14.40;8.32;;;;;;;;;;5040717;28;20192;-67
2021/05/08 08:00:24;;;;;;;13.93;9.68;;;;;;;;;;5033990;28;20189;-67
2021/05/08 08:02:51;;;;;;;15.05;9.32;;;;;;;;;;5042715;28;20689;-68
2021/05/08 08:05:17;;;;;;;15.68;8.80;;;;;;;;;;5033171;28;20214;-68
2021/05/08 08:07:42;;;;;;;13.32;8.30;;;;;;;;;;5036903;28;20193;-67
2021/05/08 08:10:08;;;;;;;14.40;9.13;;;;;;;;;;5021756;28;20177;-68
2021/05/08 08:12:34;;;;;;;16.98;9.38;;;;;;;;;;5040900;28;20227;-68
2021/05/08 08:15:00;;;;;;;14.82;8.88;;;;;;;;;;5033343;28;20202;-67
2021/05/08 08:17:28;;;;;;;15.02;9.57;;;;;;;;;;5038496;28;20190;-67
2021/05/08 08:19:53;;;;;;;13.55;8.65;;;;;;;;;;5037280;28;20243;-68
2021/05/08 08:22:19;;;;;;;16.10;9.35;;;;;;;;;;5034561;28;20190;-68
2021/05/08 08:24:44;;;;;;;14.50;8.85;;;;;;;;;;5041937;28;20165;-68
2021/05/08 08:27:10;;;;;;;16.55;9.50;;;;;;;;;;5033584;28;20632;-68
2021/05/08 08:29:36;;;;;;;15.32;9.52;;;;;;;;;;5044037;28;20189;-68
2021/05/08 08:32:02;;;;;;;16.20;9.50;;;;;;;;;;5031183;28;20194;-68
2021/05/08 08:34:27;;;;;;;15.05;9.30;;;;;;;;;;5044835;28;20236;-68
2021/05/08 08:36:52;;;;;;;11.05;8.00;;;;;;;;;;5036570;28;20189;-68
2021/05/08 08:39:18;;;;;;;14.40;8.50;;;;;;;;;;5035145;28;20283;-68
2021/05/08 08:41:44;;;;;;;11.98;8.63;;;;;;;;;;5034102;28;20233;-68
2021/05/08 08:44:10;;;;;;;17.27;9.13;;;;;;;;;;5043885;28;20930;-68
2021/05/08 08:46:40;;;;;;;14.68;9.50;;;;;;;;;;5030710;28;20308;-68
2021/05/08 08:49:06;;;;;;;13.43;9.18;;;;;;;;;;5043114;28;20220;-67
2021/05/08 08:51:31;;;;;;;13.43;8.68;;;;;;;;;;5035671;28;20217;-68
2021/05/08 08:53:57;;;;;;;13.50;9.05;;;;;;;;;;5032113;28;20232;-68
2021/05/08 08:56:23;;;;;;;14.27;8.65;;;;;;;;;;5038207;28;20186;-68
2021/05/08 08:58:56;;;;;;;11.23;8.07;;;;;;;;;;5032132;28;20235;-68
2021/05/08 09:01:21;;;;;;;12.52;8.45;;;;;;;;;;5041284;28;20659;-68
2021/05/08 09:03:46;;;;;;;12.85;8.55;;;;;;;;;;5033024;28;20181;-68
2021/05/08 09:06:12;;;;;;;11.75;7.85;;;;;;;;;;5036494;28;20197;-67
2021/05/08 09:08:38;;;;;;;11.68;7.88;;;;;;;;;;5033339;28;20278;-67
2021/05/08 09:11:20;;;;;;;14.05;7.28;;;;;;;;;;5036792;28;20292;-67
2021/05/08 09:13:45;;;;;;;9.93;7.32;;;;;;;;;;5030868;28;20267;-68
2021/05/08 09:16:11;;;;;;;13.15;7.75;;;;;;;;;;5039044;28;20591;-68
2021/05/08 09:18:39;;;;;;;14.38;8.20;;;;;;;;;;5035794;28;20200;-68
2021/05/08 09:21:06;;;;;;;12.35;7.53;;;;;;;;;;5039931;28;20180;-68
2021/05/08 09:23:31;;;;;;;10.02;7.03;;;;;;;;;;5036151;28;20207;-68
2021/05/08 09:26:01;;;;;;;14.02;7.68;;;;;;;;;;5042097;28;20198;-68
2021/05/08 09:28:29;;;;;;;10.27;7.20;;;;;;;;;;5025044;28;20975;-68
2021/05/08 09:30:54;;;;;;;10.95;7.03;;;;;;;;;;5043816;28;20182;-68
2021/05/08 09:33:22;;;;;;;11.57;7.45;;;;;;;;;;5033065;28;20238;-68
2021/05/08 09:35:58;;;;;;;11.77;7.15;;;;;;;;;;5041507;28;20195;-68
2021/05/08 09:38:29;;;;;;;9.85;6.35;;;;;;;;;;5022612;28;20200;-67
2021/05/08 09:40:55;;;;;;;11.98;6.53;;;;;;;;;;5031991;28;20225;-67
2021/05/08 09:43:23;;;;;;;10.70;5.80;;;;;;;;;;5040333;28;20181;-69
2021/05/08 09:45:52;;;;;;;9.73;6.50;;;;;;;;;;5030260;28;20206;-68
2021/05/08 09:48:32;;;;;;;10.25;6.28;;;;;;;;;;5044158;28;20184;-67
2021/05/08 09:51:27;;;;;;;11.40;6.47;;;;;;;;;;5030056;28;20186;-67
2021/05/08 09:53:53;;;;;;;10.05;6.40;;;;;;;;;;5037735;28;20224;-68
2021/05/08 09:56:42;;;;;;;14.95;6.53;;;;;;;;;;5031507;28;20221;-69
2021/05/08 09:59:23;;;;;;;10.73;6.60;;;;;;;;;;5033794;28;20170;-68
2021/05/08 10:01:50;;;;;;;9.88;5.95;;;;;;;;;;5031059;28;20221;-68
2021/05/08 10:04:40;;;;;;;9.88;6.00;;;;;;;;;;5038709;28;20187;-69
2021/05/08 10:07:10;;;;;;;7.57;5.70;;;;;;;;;;5029052;28;20193;-68
2021/05/08 10:09:36;;;;;;;10.38;5.80;;;;;;;;;;5043109;28;20185;-70
2021/05/08 10:12:04;;;;;;;9.55;5.53;;;;;;;;;;5036171;28;20237;-69
2021/05/08 10:14:30;;;;;;;9.65;5.53;;;;;;;;;;5051723;28;20205;-68
2021/05/08 10:16:57;;;;;;;9.00;5.80;;;;;;;;;;5030261;28;20218;-68
2021/05/08 10:19:24;;;;;;;10.52;6.50;;;;;;;;;;5046802;28;20342;-68
2021/05/08 10:21:50;;;;;;;11.88;6.10;;;;;;;;;;5030030;28;20216;-68
2021/05/08 10:24:15;;;;;;;9.25;6.40;;;;;;;;;;5041639;28;20213;-68
2021/05/08 10:26:41;;;;;;;10.65;6.28;;;;;;;;;;5028257;28;20408;-68
2021/05/08 10:29:07;;;;;;;9.18;5.88;;;;;;;;;;5034688;28;20209;-68
2021/05/08 10:31:33;;;;;;;11.18;5.72;;;;;;;;;;5033785;28;20202;-68
2021/05/08 10:33:59;;;;;;;11.50;6.07;;;;;;;;;;5046356;28;20197;-69
2021/05/08 10:37:06;;;;;;;9.10;5.18;;;;;;;;;;5044607;28;20280;-68
2021/05/08 10:39:59;;;;;;;9.55;5.57;;;;;;;;;;5027106;28;20255;-69
2021/05/08 10:42:44;;;;;;;8.80;5.30;;;;;;;;;;5035327;28;20222;-68
2021/05/08 10:45:13;;;;;;;9.20;5.25;;;;;;;;;;5043240;28;20275;-68
2021/05/08 10:47:53;;;;;;;8.73;4.75;;;;;;;;;;5035580;28;20637;-67
2021/05/08 10:50:22;;;;;;;9.93;5.28;;;;;;;;;;5043058;28;20221;-67
2021/05/08 10:53:00;;;;;;;7.65;4.45;;;;;;;;;;5037991;28;20273;-68
2021/05/08 10:55:25;;;;;;;9.48;5.68;;;;;;;;;;5043534;28;20212;-67
2021/05/08 10:58:16;;;;;;;7.03;4.72;;;;;;;;;;5030020;28;20683;-68
2021/05/08 11:01:01;;;;;;;8.68;5.35;;;;;;;;;;5045326;28;20190;-68
2021/05/08 11:03:46;;;;;;;9.85;4.90;;;;;;;;;;5028791;28;20200;-68
2021/05/08 11:06:11;;;;;;;11.57;4.60;;;;;;;;;;5041589;28;20247;-68
2021/05/08 11:08:36;;;;;;;7.32;4.43;;;;;;;;;;5034312;28;20620;-68
2021/05/08 11:11:08;;;;;;;7.90;5.03;;;;;;;;;;5040579;28;20208;-68
2021/05/08 11:13:42;;;;;;;7.53;4.53;;;;;;;;;;5035050;28;20177;-67
2021/05/08 11:16:12;;;;;;;9.57;4.20;;;;;;;;;;5043828;28;20184;-68
2021/05/08 11:18:41;;;;;;;7.25;3.53;;;;;;;;;;5040280;28;20182;-68
2021/05/08 11:21:13;;;;;;;9.88;4.25;;;;;;;;;;5029832;28;20591;-70
2021/05/08 11:23:47;;;;;;;7.68;4.13;;;;;;;;;;5035179;28;20188;-70
2021/05/08 11:26:28;;;;;;;4.85;3.42;;;;;;;;;;5034126;28;20196;-68
2021/05/08 11:28:58;;;;;;;9.10;3.45;;;;;;;;;;5046547;28;20311;-69
2021/05/08 11:31:24;;;;;;;7.07;3.35;;;;;;;;;;5035596;28;20201;-67
2021/05/08 11:33:50;;;;;;;6.38;3.38;;;;;;;;;;5040296;28;20680;-68
2021/05/08 11:36:16;;;;;;;6.07;3.20;;;;;;;;;;5030902;28;20262;-68
2021/05/08 11:38:41;;;;;;;5.25;3.10;;;;;;;;;;5040178;28;20184;-69
2021/05/08 11:41:24;;;;;;;5.30;2.88;;;;;;;;;;5031198;28;21028;-68
2021/05/08 11:43:57;;;;;;;5.45;2.75;;;;;;;;;;5046007;28;20220;-68
2021/05/08 11:46:24;;;;;;;7.90;3.00;;;;;;;;;;5031983;28;20192;-68
2021/05/08 11:48:50;;;;;;;6.03;3.10;;;;;;;;;;5044132;28;20186;-68
2021/05/08 11:51:15;;;;;;;4.93;2.60;;;;;;;;;;5034413;28;20193;-69
2021/05/08 11:53:41;;;;;;;3.42;2.80;;;;;;;;;;5041863;28;20562;-68
2021/05/08 11:56:06;;;;;;;5.80;2.28;;;;;;;;;;5033368;28;20296;-68
2021/05/08 11:58:32;;;;;;;5.07;2.55;;;;;;;;;;5039229;28;20196;-68
2021/05/08 12:00:57;;;;;;;5.72;3.10;;;;;;;;;;5037159;28;20182;-68
2021/05/08 12:03:24;;;;;;;6.90;3.60;;;;;;;;;;5036904;28;20205;-69
2021/05/08 12:05:50;;;;;;;5.18;3.50;;;;;;;;;;5043410;28;20241;-68
2021/05/08 12:08:19;;;;;;;7.53;3.75;;;;;;;;;;5034228;28;20680;-68
2021/05/08 12:10:45;;;;;;;5.82;3.88;;;;;;;;;;5035774;28;20659;-69
2021/05/08 12:13:11;;;;;;;6.47;3.35;;;;;;;;;;5039588;28;20186;-68
2021/05/08 12:15:39;;;;;;;4.40;3.28;;;;;;;;;;5041791;28;20666;-68
2021/05/08 12:18:14;;;;;;;5.15;3.20;;;;;;;;;;5037510;28;20718;-68
2021/05/08 12:20:45;;;;;;;5.13;3.05;;;;;;;;;;5038932;28;20189;-68
2021/05/08 12:23:16;;;;;;;6.18;3.20;;;;;;;;;;5029078;28;20181;-69
2021/05/08 12:25:42;;;;;;;6.60;3.25;;;;;;;;;;5043889;28;20641;-68
2021/05/08 12:28:20;;;;;;;6.50;3.50;;;;;;;;;;5033939;28;20264;-68
2021/05/08 12:30:51;;;;;;;7.65;3.60;;;;;;;;;;5033534;28;20189;-68
2021/05/08 12:33:22;;;;;;;9.25;3.38;;;;;;;;;;5031083;28;20197;-69
2021/05/08 12:35:48;;;;;;;4.68;3.30;;;;;;;;;;5040433;28;20684;-69
2021/05/08 12:38:16;;;;;;;5.97;3.20;;;;;;;;;;5022920;28;20190;-68
2021/05/08 12:40:42;;;;;;;5.65;3.15;;;;;;;;;;5039150;28;20225;-69
2021/05/08 12:43:08;;;;;;;5.18;2.90;;;;;;;;;;5025678;28;20232;-69
2021/05/08 12:45:33;;;;;;;3.90;3.00;;;;;;;;;;5040642;28;20951;-68
2021/05/08 12:47:59;;;;;;;5.82;3.10;;;;;;;;;;5049160;28;20234;-68
2021/05/08 12:50:33;;;;;;;4.40;3.00;;;;;;;;;;5038383;28;20724;-68
2021/05/08 12:53:06;;;;;;;5.20;3.50;;;;;;;;;;5045445;28;20169;-67
2021/05/08 12:55:33;;;;;;;5.78;3.22;;;;;;;;;;5031546;28;20212;-68
2021/05/08 12:58:08;;;;;;;6.45;3.50;;;;;;;;;;5049514;28;20260;-69
2021/05/08 13:00:53;;;;;;;9.40;3.72;;;;;;;;;;5030593;28;20231;-68
2021/05/08 13:03:25;;;;;;;6.55;3.95;;;;;;;;;;5041042;28;20202;-68
2021/05/08 13:05:51;;;;;;;5.95;3.38;;;;;;;;;;5031718;28;20553;-68
2021/05/08 13:08:16;;;;;;;6.50;3.60;;;;;;;;;;5039317;28;20200;-68
2021/05/08 13:10:43;;;;;;;6.60;3.53;;;;;;;;;;5034547;28;20640;-69
2021/05/08 13:13:19;;;;;;;6.10;3.63;;;;;;;;;;5031094;28;20277;-69
2021/05/08 13:15:54;;;;;;;7.53;4.15;;;;;;;;;;5031484;28;20212;-68
2021/05/08 13:18:21;;;;;;;7.28;3.67;;;;;;;;;;5041658;28;20192;-68
2021/05/08 13:20:47;;;;;;;5.70;4.00;;;;;;;;;;5031902;28;20227;-69
2021/05/08 13:23:13;;;;;;;6.95;4.22;;;;;;;;;;5034678;28;20206;-69
2021/05/08 13:25:39;;;;;;;7.60;3.72;;;;;;;;;;5033578;28;20188;-69
2021/05/08 13:28:04;;;;;;;6.82;3.88;;;;;;;;;;5038385;28;20185;-69
2021/05/08 13:30:30;;;;;;;6.53;3.80;;;;;;;;;;5034254;28;20186;-69
2021/05/08 13:32:56;;;;;;;5.97;3.97;;;;;;;;;;5034436;28;20653;-70
2021/05/08 13:35:27;;;;;;;8.13;3.90;;;;;;;;;;5040786;28;20205;-69
2021/05/08 13:37:56;;;;;;;5.25;3.50;;;;;;;;;;5039238;28;20195;-69
2021/05/08 13:40:23;;;;;;;5.55;3.92;;;;;;;;;;5040911;28;20198;-69
2021/05/08 13:42:48;;;;;;;7.22;4.45;;;;;;;;;;5038455;28;20248;-68
2021/05/08 13:45:15;;;;;;;3.60;3.25;;;;;;;;;;5056207;28;20177;-68
2021/05/08 13:47:41;;;;;;;4.63;3.78;;;;;;;;;;5030894;28;20284;-69
2021/05/08 13:50:07;;;;;;;4.53;3.47;;;;;;;;;;5037245;28;20219;-69
2021/05/08 13:52:33;;;;;;;6.40;4.10;;;;;;;;;;5034035;28;20574;-70
2021/05/08 13:54:59;;;;;;;11.60;4.07;;;;;;;;;;5042078;28;20221;-70
2021/05/08 13:57:24;;;;;;;6.35;3.85;;;;;;;;;;5028616;28;20268;-70
2021/05/08 13:59:50;;;;;;;4.95;3.90;;;;;;;;;;5039430;28;20540;-70
2021/05/08 14:02:16;;;;;;;6.25;4.65;;;;;;;;;;5027904;28;20221;-69
2021/05/08 14:04:43;;;;;;;6.00;4.70;;;;;;;;;;5040768;28;20276;-70
2021/05/08 14:07:09;;;;;;;6.25;4.40;;;;;;;;;;5039349;28;20618;-69
2021/05/08 14:09:34;;;;;;;6.15;4.20;;;;;;;;;;5037747;28;20204;-70
2021/05/08 14:11:59;;;;;;;6.10;4.40;;;;;;;;;;5049481;28;20192;-69
2021/05/08 14:14:25;;;;;;;6.82;4.90;;;;;;;;;;5032587;28;20202;-69
2021/05/08 14:16:50;;;;;;;6.72;4.35;;;;;;;;;;5042869;28;20196;-69
2021/05/08 14:19:16;;;;;;;7.20;4.65;;;;;;;;;;5037601;28;20189;-70
2021/05/08 14:21:43;;;;;;;7.93;4.93;;;;;;;;;;5044084;28;20193;-69
2021/05/08 14:24:09;;;;;;;5.88;4.45;;;;;;;;;;5035792;28;20197;-70
2021/05/08 14:26:35;;;;;;;8.10;4.45;;;;;;;;;;5046368;28;20640;-70
2021/05/08 14:29:00;;;;;;;7.38;4.85;;;;;;;;;;5031395;28;20212;-70
2021/05/08 14:31:26;;;;;;;6.28;4.85;;;;;;;;;;5041017;28;20185;-71